Terminal Aerodrome Forecast
Issued by NWS Sterling, VA

Current Version | Previous Version | Graphics & Text | Print | Product List | Glossary On
Versions: 1 2 3 4 5 6 7 8 9 10 11 12 13 14 15 16
123
FTUS41 KLWX 181720
TAFMRB
TAF
KMRB 181720Z 1818/1918 06005KT P6SM SCT025
     FM190100 VRB03KT P6SM SCT035 SCT120
     FM190500 VRB03KT 5SM BR BKN015
     FM190800 VRB04KT 2SM BR SCT008 BKN015
     FM191300 35007KT P6SM BKN015
     FM191500 35008KT P6SM SCT030=

USA.gov is the U.S. government's official web portal to all federal, state and local government web resources and services.